Time;durP1;ratioP1;P1;durP2;ratioP2;P2;SDS_P1;SDS_P2;PMS_P1;PMS_P2;Temp;Humidity;BMP_temperature;BMP_pressure;BME280_temperature;BME280_humidity;BME280_pressure;Samples;Min_cycle;Max_cycle;Signal;HPM_P1;HPM_P2
2021/12/09 00:01:49;;;;;;;7.47;5.35;;;;;;;;;;5033104;28;20049;-54
2021/12/09 00:04:24;;;;;;;8.35;5.82;;;;;;;;;;5033330;28;20109;-55
2021/12/09 00:06:49;;;;;;;7.78;5.63;;;;;;;;;;5036676;28;20029;-52
2021/12/09 00:09:17;;;;;;;5.47;4.78;;;;;;;;;;5031744;28;20036;-50
2021/12/09 00:11:43;;;;;;;9.38;6.70;;;;;;;;;;5036485;28;20037;-49
2021/12/09 00:14:15;;;;;;;10.13;6.70;;;;;;;;;;5030867;28;20025;-55
2021/12/09 00:16:41;;;;;;;6.65;5.45;;;;;;;;;;5035081;28;20033;-53
2021/12/09 00:19:06;;;;;;;4.82;4.32;;;;;;;;;;5034080;28;20033;-54
2021/12/09 00:21:33;;;;;;;7.30;6.30;;;;;;;;;;5033973;28;20034;-55
2021/12/09 00:23:58;;;;;;;7.32;5.95;;;;;;;;;;5035175;28;20033;-55
2021/12/09 00:26:23;;;;;;;9.60;6.03;;;;;;;;;;5032608;28;20695;-54
2021/12/09 00:28:49;;;;;;;7.65;6.60;;;;;;;;;;5030953;28;20029;-52
2021/12/09 00:31:15;;;;;;;6.85;6.15;;;;;;;;;;5035893;28;20025;-50
2021/12/09 00:33:44;;;;;;;6.50;5.30;;;;;;;;;;5033424;28;20033;-49
2021/12/09 00:36:10;;;;;;;4.97;4.45;;;;;;;;;;5035185;28;20025;-51
2021/12/09 00:38:39;;;;;;;6.78;5.63;;;;;;;;;;5033448;28;20030;-52
2021/12/09 00:41:08;;;;;;;7.32;6.05;;;;;;;;;;5035505;28;20028;-52
2021/12/09 00:43:34;;;;;;;11.80;5.75;;;;;;;;;;5034002;28;20471;-51
2021/12/09 00:46:00;;;;;;;8.80;4.72;;;;;;;;;;5035360;28;20037;-52
2021/12/09 00:48:26;;;;;;;23.30;5.22;;;;;;;;;;5037458;28;20041;-50
2021/12/09 00:50:53;;;;;;;7.63;6.00;;;;;;;;;;5037362;28;20586;-50
2021/12/09 00:53:19;;;;;;;6.20;5.60;;;;;;;;;;5037855;28;20118;-52
2021/12/09 00:55:44;;;;;;;7.50;4.90;;;;;;;;;;5038071;28;20125;-51
2021/12/09 00:58:10;;;;;;;5.20;4.70;;;;;;;;;;5038713;28;20029;-52
2021/12/09 01:00:35;;;;;;;5.97;4.47;;;;;;;;;;5037093;28;20041;-55
2021/12/09 01:03:01;;;;;;;5.97;5.38;;;;;;;;;;5040063;28;20033;-51
2021/12/09 01:05:28;;;;;;;5.65;4.90;;;;;;;;;;5037576;28;20516;-50
2021/12/09 01:07:54;;;;;;;6.90;4.93;;;;;;;;;;5036145;28;20444;-51
2021/12/09 01:10:20;;;;;;;8.45;5.90;;;;;;;;;;5037701;28;20146;-50
2021/12/09 01:12:46;;;;;;;5.88;5.25;;;;;;;;;;5039307;28;20468;-52
2021/12/09 01:15:15;;;;;;;7.07;4.30;;;;;;;;;;5036096;28;20115;-53
2021/12/09 01:17:42;;;;;;;5.72;4.55;;;;;;;;;;5038454;28;20057;-54
2021/12/09 01:20:10;;;;;;;5.00;4.38;;;;;;;;;;5037812;28;20359;-55
2021/12/09 01:22:43;;;;;;;5.95;3.97;;;;;;;;;;5036670;28;20049;-55
2021/12/09 01:25:17;;;;;;;4.38;3.97;;;;;;;;;;5036943;28;20132;-54
2021/12/09 01:27:45;;;;;;;5.28;4.43;;;;;;;;;;5036146;28;20083;-53
2021/12/09 01:30:16;;;;;;;6.05;4.25;;;;;;;;;;5037602;28;20408;-54
2021/12/09 01:32:48;;;;;;;5.57;4.28;;;;;;;;;;5035133;28;20032;-54
2021/12/09 01:35:15;;;;;;;7.22;4.68;;;;;;;;;;5038018;28;20472;-53
2021/12/09 01:37:40;;;;;;;4.30;3.67;;;;;;;;;;5037347;28;20068;-52
2021/12/09 01:40:08;;;;;;;4.40;3.65;;;;;;;;;;5037767;28;20652;-53
2021/12/09 01:42:34;;;;;;;7.05;5.03;;;;;;;;;;5040376;28;20033;-52
2021/12/09 01:44:59;;;;;;;5.30;4.13;;;;;;;;;;5035724;28;20094;-54
2021/12/09 01:47:24;;;;;;;6.30;4.45;;;;;;;;;;5036624;28;20025;-52
2021/12/09 01:49:50;;;;;;;5.30;3.50;;;;;;;;;;5040899;28;20044;-52
2021/12/09 01:52:15;;;;;;;4.47;4.00;;;;;;;;;;5042080;28;20028;-51
2021/12/09 01:54:41;;;;;;;7.28;5.32;;;;;;;;;;5036663;28;20030;-53
2021/12/09 01:57:07;;;;;;;4.72;3.60;;;;;;;;;;5040945;28;20029;-50
2021/12/09 01:59:33;;;;;;;4.93;4.05;;;;;;;;;;5033174;28;20036;-51
2021/12/09 02:01:59;;;;;;;4.95;4.10;;;;;;;;;;5037081;28;20473;-49
2021/12/09 02:04:25;;;;;;;5.57;4.32;;;;;;;;;;5035534;28;20097;-52
2021/12/09 02:06:51;;;;;;;4.10;3.58;;;;;;;;;;5037113;28;20033;-50
2021/12/09 02:09:17;;;;;;;6.75;4.18;;;;;;;;;;5037086;28;20375;-51
2021/12/09 02:11:43;;;;;;;5.22;4.47;;;;;;;;;;5038131;28;20022;-50
2021/12/09 02:14:09;;;;;;;4.18;3.63;;;;;;;;;;5036653;28;20110;-50
2021/12/09 02:16:35;;;;;;;4.88;4.18;;;;;;;;;;5035781;28;20457;-52
2021/12/09 02:19:01;;;;;;;5.35;4.45;;;;;;;;;;5033714;28;20116;-54
2021/12/09 02:21:32;;;;;;;5.18;3.42;;;;;;;;;;5038973;28;20040;-54
2021/12/09 02:24:04;;;;;;;6.20;4.50;;;;;;;;;;5037662;28;20083;-50
2021/12/09 02:26:33;;;;;;;5.30;3.72;;;;;;;;;;5036584;28;20291;-50
2021/12/09 02:28:59;;;;;;;4.40;4.00;;;;;;;;;;5038313;28;20045;-53
2021/12/09 02:31:27;;;;;;;3.85;3.25;;;;;;;;;;5039722;28;20036;-49
2021/12/09 02:33:53;;;;;;;4.20;3.22;;;;;;;;;;5037517;28;20377;-53
2021/12/09 02:36:18;;;;;;;5.30;4.47;;;;;;;;;;5039513;28;20148;-53
2021/12/09 02:38:45;;;;;;;4.22;3.65;;;;;;;;;;5037815;28;20028;-53
2021/12/09 02:41:16;;;;;;;5.03;3.70;;;;;;;;;;5036360;28;20087;-53
2021/12/09 02:43:43;;;;;;;6.50;4.63;;;;;;;;;;5032806;28;20025;-53
2021/12/09 02:46:08;;;;;;;7.38;3.42;;;;;;;;;;5037604;28;20029;-51
2021/12/09 02:48:34;;;;;;;4.78;4.00;;;;;;;;;;5036280;28;20032;-53
2021/12/09 02:51:03;;;;;;;4.72;3.88;;;;;;;;;;5035699;28;20051;-53
2021/12/09 02:53:28;;;;;;;4.20;3.80;;;;;;;;;;5034979;28;20033;-53
2021/12/09 02:55:54;;;;;;;4.57;3.35;;;;;;;;;;5036587;28;20099;-54
2021/12/09 02:58:19;;;;;;;4.93;3.47;;;;;;;;;;5038912;28;20036;-54
2021/12/09 03:00:56;;;;;;;6.03;4.07;;;;;;;;;;5035096;28;20053;-53
2021/12/09 03:03:22;;;;;;;4.18;2.90;;;;;;;;;;5036085;28;20037;-52
2021/12/09 03:05:47;;;;;;;6.72;4.55;;;;;;;;;;5035290;28;20473;-51
2021/12/09 03:08:22;;;;;;;8.23;4.65;;;;;;;;;;5037654;28;20033;-53
2021/12/09 03:10:47;;;;;;;4.45;3.47;;;;;;;;;;5034902;28;20021;-54
2021/12/09 03:13:13;;;;;;;5.28;3.85;;;;;;;;;;5034795;28;20079;-54
2021/12/09 03:15:38;;;;;;;6.15;4.53;;;;;;;;;;5038318;28;20028;-52
2021/12/09 03:18:04;;;;;;;4.88;4.22;;;;;;;;;;5032335;28;20051;-53
2021/12/09 03:20:30;;;;;;;6.13;3.78;;;;;;;;;;5035017;28;20108;-53
2021/12/09 03:22:55;;;;;;;4.05;2.92;;;;;;;;;;5037701;28;20040;-54
2021/12/09 03:25:21;;;;;;;3.78;3.38;;;;;;;;;;5032780;28;20427;-51
2021/12/09 03:27:47;;;;;;;5.22;3.30;;;;;;;;;;5035525;28;20040;-54
2021/12/09 03:30:15;;;;;;;3.50;3.08;;;;;;;;;;5033219;28;20459;-53
2021/12/09 03:32:41;;;;;;;5.28;3.90;;;;;;;;;;5034468;28;20029;-50
2021/12/09 03:35:08;;;;;;;6.57;4.47;;;;;;;;;;5033736;28;20119;-52
2021/12/09 03:37:34;;;;;;;8.80;4.80;;;;;;;;;;5035459;28;20120;-52
2021/12/09 03:39:59;;;;;;;5.20;3.70;;;;;;;;;;5033564;28;20534;-52
2021/12/09 03:42:27;;;;;;;4.43;3.70;;;;;;;;;;5037396;28;20025;-51
2021/12/09 03:44:54;;;;;;;5.30;3.53;;;;;;;;;;5036360;28;20045;-52
2021/12/09 03:47:23;;;;;;;7.03;3.83;;;;;;;;;;5034571;28;20056;-52
2021/12/09 03:49:49;;;;;;;5.28;4.20;;;;;;;;;;5034689;28;20025;-52
2021/12/09 03:52:15;;;;;;;3.28;2.88;;;;;;;;;;5035156;28;20040;-53
2021/12/09 03:54:42;;;;;;;4.45;4.05;;;;;;;;;;5035359;28;20056;-52
2021/12/09 03:57:09;;;;;;;5.90;3.67;;;;;;;;;;5032640;28;20068;-52
2021/12/09 03:59:35;;;;;;;7.22;3.53;;;;;;;;;;5035088;28;20037;-55
2021/12/09 04:02:00;;;;;;;5.97;3.33;;;;;;;;;;5037262;28;20043;-55
2021/12/09 04:04:26;;;;;;;4.10;3.38;;;;;;;;;;5035902;28;20040;-56
2021/12/09 04:06:52;;;;;;;3.63;2.90;;;;;;;;;;5036575;28;20033;-52
2021/12/09 04:09:19;;;;;;;3.92;3.00;;;;;;;;;;5035565;28;20036;-53
2021/12/09 04:11:46;;;;;;;4.18;3.75;;;;;;;;;;5032508;28;20467;-54
2021/12/09 04:14:12;;;;;;;4.20;3.63;;;;;;;;;;5035684;28;20064;-52
2021/12/09 04:16:38;;;;;;;4.53;4.13;;;;;;;;;;5037733;28;20032;-52
2021/12/09 04:19:06;;;;;;;3.58;2.92;;;;;;;;;;5035882;28;20029;-54
2021/12/09 04:21:32;;;;;;;3.78;3.00;;;;;;;;;;5033505;28;20041;-54
2021/12/09 04:23:58;;;;;;;6.25;4.60;;;;;;;;;;5032090;28;20136;-52
2021/12/09 04:26:23;;;;;;;7.93;4.57;;;;;;;;;;5039949;28;20120;-51
2021/12/09 04:28:49;;;;;;;7.13;4.53;;;;;;;;;;5039171;28;20029;-54
2021/12/09 04:31:15;;;;;;;3.50;3.00;;;;;;;;;;5040311;28;20449;-51
2021/12/09 04:33:42;;;;;;;5.63;4.35;;;;;;;;;;5038554;28;20041;-50
2021/12/09 04:36:07;;;;;;;4.00;3.40;;;;;;;;;;5039017;28;20095;-52
2021/12/09 04:38:33;;;;;;;3.72;3.13;;;;;;;;;;5035570;28;20029;-53
2021/12/09 04:40:59;;;;;;;11.60;3.83;;;;;;;;;;5038744;28;20406;-52
2021/12/09 04:43:24;;;;;;;3.55;2.97;;;;;;;;;;5038137;28;20025;-50
2021/12/09 04:45:50;;;;;;;5.65;4.05;;;;;;;;;;5035802;28;20041;-52
2021/12/09 04:48:15;;;;;;;3.92;3.42;;;;;;;;;;5034872;28;20041;-54
2021/12/09 04:50:42;;;;;;;4.85;2.78;;;;;;;;;;5034832;28;20044;-54
2021/12/09 04:53:09;;;;;;;3.88;3.40;;;;;;;;;;5036053;28;20040;-53
2021/12/09 04:55:35;;;;;;;10.88;4.30;;;;;;;;;;5039219;28;20052;-54
2021/12/09 04:58:01;;;;;;;3.30;2.90;;;;;;;;;;5045652;28;20029;-52
2021/12/09 05:00:29;;;;;;;3.95;3.22;;;;;;;;;;5038304;28;20025;-52
2021/12/09 05:03:03;;;;;;;3.78;3.13;;;;;;;;;;5038645;28;20031;-49
2021/12/09 05:05:33;;;;;;;4.40;3.15;;;;;;;;;;5038767;28;20037;-53
2021/12/09 05:08:00;;;;;;;5.00;3.53;;;;;;;;;;5038285;28;20029;-51
2021/12/09 05:10:26;;;;;;;5.05;3.65;;;;;;;;;;5036155;28;20026;-51
2021/12/09 05:12:51;;;;;;;4.53;4.03;;;;;;;;;;5041992;28;20557;-54
2021/12/09 05:15:16;;;;;;;5.72;4.00;;;;;;;;;;5037215;28;20518;-53
2021/12/09 05:17:42;;;;;;;4.10;3.50;;;;;;;;;;5035316;28;20036;-54
2021/12/09 05:20:08;;;;;;;7.82;4.32;;;;;;;;;;5039082;28;20064;-50
2021/12/09 05:22:34;;;;;;;5.05;3.60;;;;;;;;;;5035826;28;20084;-50
2021/12/09 05:24:59;;;;;;;3.97;3.00;;;;;;;;;;5035436;28;20069;-51
2021/12/09 05:27:25;;;;;;;4.57;3.45;;;;;;;;;;5039272;28;20056;-51
2021/12/09 05:30:04;;;;;;;3.83;3.25;;;;;;;;;;5035380;28;20033;-53
2021/12/09 05:32:30;;;;;;;4.22;3.42;;;;;;;;;;5038262;28;20033;-55
2021/12/09 05:34:56;;;;;;;5.35;4.10;;;;;;;;;;5036878;28;20037;-54
2021/12/09 05:37:25;;;;;;;4.40;4.00;;;;;;;;;;5036435;28;20059;-55
2021/12/09 05:39:54;;;;;;;4.07;3.22;;;;;;;;;;5037613;28;20056;-55
2021/12/09 05:42:21;;;;;;;3.95;2.90;;;;;;;;;;5035357;28;20036;-53
2021/12/09 05:44:47;;;;;;;3.60;2.67;;;;;;;;;;5040037;28;20499;-51
2021/12/09 05:47:13;;;;;;;5.10;4.22;;;;;;;;;;5035322;28;20125;-53
2021/12/09 05:49:42;;;;;;;5.00;3.70;;;;;;;;;;5033981;28;20040;-53
2021/12/09 05:52:11;;;;;;;12.38;3.83;;;;;;;;;;5039557;28;20061;-50
2021/12/09 05:54:37;;;;;;;3.72;3.35;;;;;;;;;;5032227;28;20120;-48
2021/12/09 05:57:03;;;;;;;5.47;3.45;;;;;;;;;;5035971;28;20518;-49
2021/12/09 05:59:28;;;;;;;4.85;3.88;;;;;;;;;;5037028;28;20060;-49
2021/12/09 06:01:54;;;;;;;6.38;3.60;;;;;;;;;;5035647;28;20057;-52
2021/12/09 06:04:21;;;;;;;4.10;3.33;;;;;;;;;;5036101;28;20047;-53
2021/12/09 06:06:47;;;;;;;4.72;3.50;;;;;;;;;;5035866;28;20040;-49
2021/12/09 06:09:13;;;;;;;5.70;4.70;;;;;;;;;;5034139;28;20040;-50
2021/12/09 06:11:40;;;;;;;4.38;3.33;;;;;;;;;;5036476;28;20025;-50
2021/12/09 06:14:07;;;;;;;4.28;3.55;;;;;;;;;;5036242;28;20474;-49
2021/12/09 06:16:33;;;;;;;2.90;2.40;;;;;;;;;;5037534;28;20629;-53
2021/12/09 06:19:01;;;;;;;3.60;3.13;;;;;;;;;;5036014;28;20029;-49
2021/12/09 06:21:27;;;;;;;3.67;3.38;;;;;;;;;;5038316;28;20064;-49
2021/12/09 06:23:54;;;;;;;4.07;3.47;;;;;;;;;;5035925;28;20040;-49
2021/12/09 06:26:20;;;;;;;16.40;7.47;;;;;;;;;;5036752;28;20033;-49
2021/12/09 06:28:46;;;;;;;4.50;3.22;;;;;;;;;;5034081;28;20029;-50
2021/12/09 06:31:12;;;;;;;3.60;2.90;;;;;;;;;;5035348;28;20542;-52
2021/12/09 06:33:37;;;;;;;4.15;3.75;;;;;;;;;;5034250;28;20470;-52
2021/12/09 06:36:03;;;;;;;3.63;3.08;;;;;;;;;;5019925;28;20037;-50
2021/12/09 06:38:28;;;;;;;4.35;3.38;;;;;;;;;;5032605;28;20144;-52
2021/12/09 06:40:54;;;;;;;5.97;3.70;;;;;;;;;;5033920;28;20529;-51
2021/12/09 06:43:22;;;;;;;3.83;3.05;;;;;;;;;;5033337;28;20021;-54
2021/12/09 06:45:48;;;;;;;3.90;2.90;;;;;;;;;;5034487;28;20035;-54
2021/12/09 06:48:13;;;;;;;4.45;3.53;;;;;;;;;;5036492;28;20029;-53
2021/12/09 06:50:39;;;;;;;4.18;3.30;;;;;;;;;;5035039;28;20465;-50
2021/12/09 06:53:05;;;;;;;4.82;2.90;;;;;;;;;;5034537;28;20037;-53
2021/12/09 06:55:30;;;;;;;3.67;2.58;;;;;;;;;;5036875;28;20029;-52
2021/12/09 06:57:56;;;;;;;3.97;3.13;;;;;;;;;;5035502;28;20544;-51
2021/12/09 07:00:26;;;;;;;4.32;3.13;;;;;;;;;;5037790;28;20033;-51
2021/12/09 07:02:52;;;;;;;3.28;2.92;;;;;;;;;;5038139;28;20566;-54
2021/12/09 07:05:20;;;;;;;6.22;4.13;;;;;;;;;;5036269;28;20026;-51
2021/12/09 07:07:46;;;;;;;3.75;3.38;;;;;;;;;;5036186;28;20033;-52
2021/12/09 07:10:13;;;;;;;4.30;3.65;;;;;;;;;;5037926;28;20028;-52
2021/12/09 07:12:39;;;;;;;4.40;3.80;;;;;;;;;;5036022;28;20025;-54
2021/12/09 07:15:07;;;;;;;4.32;3.10;;;;;;;;;;5033649;28;20029;-51
2021/12/09 07:17:33;;;;;;;3.55;2.72;;;;;;;;;;5032674;28;20519;-51
2021/12/09 07:19:59;;;;;;;6.90;3.53;;;;;;;;;;5032276;28;20044;-53
2021/12/09 07:22:24;;;;;;;3.50;2.80;;;;;;;;;;5035352;28;20359;-53
2021/12/09 07:24:50;;;;;;;6.15;3.55;;;;;;;;;;5033266;28;20132;-54
2021/12/09 07:27:15;;;;;;;3.42;2.95;;;;;;;;;;5035514;28;20036;-54
2021/12/09 07:29:40;;;;;;;3.42;2.83;;;;;;;;;;5032585;28;20033;-52
2021/12/09 07:32:06;;;;;;;3.30;2.67;;;;;;;;;;5034577;28;20417;-52
2021/12/09 07:34:32;;;;;;;4.85;3.75;;;;;;;;;;5036907;28;20032;-54
2021/12/09 07:37:02;;;;;;;8.90;3.40;;;;;;;;;;5038452;28;20083;-50
2021/12/09 07:39:27;;;;;;;4.15;3.75;;;;;;;;;;5033193;28;20044;-51
2021/12/09 07:41:56;;;;;;;3.72;3.22;;;;;;;;;;5033484;28;20374;-54
2021/12/09 07:44:22;;;;;;;3.50;2.95;;;;;;;;;;5032788;28;20034;-54
2021/12/09 07:46:48;;;;;;;3.00;2.42;;;;;;;;;;5034353;28;20028;-50
2021/12/09 07:49:14;;;;;;;4.68;2.90;;;;;;;;;;5036549;28;20052;-54
2021/12/09 07:51:40;;;;;;;4.28;3.13;;;;;;;;;;5034584;28;20021;-54
2021/12/09 07:54:05;;;;;;;3.70;2.90;;;;;;;;;;5035263;28;20039;-52
2021/12/09 07:56:31;;;;;;;3.60;2.83;;;;;;;;;;5035627;28;20056;-51
2021/12/09 07:58:57;;;;;;;10.10;3.13;;;;;;;;;;5033543;28;20040;-53
2021/12/09 08:01:22;;;;;;;4.25;3.45;;;;;;;;;;5034646;28;20029;-50
2021/12/09 08:03:47;;;;;;;5.28;3.40;;;;;;;;;;5033819;28;20056;-53
2021/12/09 08:06:14;;;;;;;4.75;3.72;;;;;;;;;;5039017;28;20116;-53
2021/12/09 08:08:40;;;;;;;4.95;3.75;;;;;;;;;;5037436;28;20125;-53
2021/12/09 08:11:07;;;;;;;5.20;3.00;;;;;;;;;;5039428;28;20429;-53
2021/12/09 08:13:32;;;;;;;5.65;3.78;;;;;;;;;;5036658;28;20052;-54
2021/12/09 08:15:59;;;;;;;3.17;2.80;;;;;;;;;;5036492;28;20375;-50
2021/12/09 08:18:27;;;;;;;6.43;3.85;;;;;;;;;;5031527;28;20175;-55
2021/12/09 08:20:55;;;;;;;6.97;4.53;;;;;;;;;;5032263;28;20112;-54
2021/12/09 08:23:21;;;;;;;6.57;3.25;;;;;;;;;;5036568;28;20036;-54
2021/12/09 08:25:48;;;;;;;7.53;5.03;;;;;;;;;;5034785;28;20348;-55
2021/12/09 08:28:13;;;;;;;6.35;3.97;;;;;;;;;;5033729;28;20358;-55
2021/12/09 08:30:39;;;;;;;3.90;3.42;;;;;;;;;;5032677;28;20029;-55
2021/12/09 08:33:08;;;;;;;3.80;2.90;;;;;;;;;;5033607;28;20155;-54
2021/12/09 08:35:35;;;;;;;3.67;3.20;;;;;;;;;;5032819;28;20070;-53
2021/12/09 08:38:01;;;;;;;3.78;3.20;;;;;;;;;;5035683;28;20040;-53
2021/12/09 08:40:27;;;;;;;13.13;3.60;;;;;;;;;;5035583;28;20029;-53
2021/12/09 08:42:53;;;;;;;3.60;3.03;;;;;;;;;;5033838;28;20363;-55
2021/12/09 08:45:21;;;;;;;6.22;4.15;;;;;;;;;;5032693;28;20457;-53
2021/12/09 08:47:46;;;;;;;4.90;4.32;;;;;;;;;;5035232;28;20478;-54
2021/12/09 08:50:15;;;;;;;13.80;5.00;;;;;;;;;;5032728;28;20083;-51
2021/12/09 08:52:41;;;;;;;8.20;4.43;;;;;;;;;;5031730;28;20040;-51
2021/12/09 08:55:08;;;;;;;4.05;3.20;;;;;;;;;;5029655;28;20030;-51
2021/12/09 08:57:37;;;;;;;3.10;2.55;;;;;;;;;;5032103;28;20029;-51
2021/12/09 09:00:09;;;;;;;3.53;2.97;;;;;;;;;;5033814;28;20033;-53
2021/12/09 09:02:36;;;;;;;3.53;3.05;;;;;;;;;;5029737;28;20034;-52
2021/12/09 09:05:02;;;;;;;4.35;3.78;;;;;;;;;;5034000;28;20033;-53
2021/12/09 09:07:28;;;;;;;4.57;3.22;;;;;;;;;;5029451;28;20417;-53
2021/12/09 09:09:53;;;;;;;3.95;3.22;;;;;;;;;;5033654;28;20030;-56
2021/12/09 09:12:19;;;;;;;3.90;2.92;;;;;;;;;;5036694;28;20029;-56
2021/12/09 09:14:44;;;;;;;3.40;2.65;;;;;;;;;;5034021;28;20047;-55
2021/12/09 09:17:10;;;;;;;3.30;2.83;;;;;;;;;;5035399;28;20036;-57
2021/12/09 09:19:36;;;;;;;3.97;3.42;;;;;;;;;;5031309;28;20120;-56
2021/12/09 09:22:03;;;;;;;3.80;3.38;;;;;;;;;;5034975;28;20060;-55
2021/12/09 09:24:28;;;;;;;3.58;3.10;;;;;;;;;;5034369;28;20557;-57
2021/12/09 09:26:54;;;;;;;3.75;3.15;;;;;;;;;;5036363;28;20045;-56
2021/12/09 09:29:19;;;;;;;6.90;3.50;;;;;;;;;;5035270;28;20104;-56
2021/12/09 09:31:45;;;;;;;3.95;3.40;;;;;;;;;;5027019;28;20611;-55
2021/12/09 09:34:12;;;;;;;3.92;2.92;;;;;;;;;;5036614;28;20471;-55
2021/12/09 09:36:43;;;;;;;3.50;3.15;;;;;;;;;;5037215;28;20095;-56
2021/12/09 09:39:17;;;;;;;3.30;2.58;;;;;;;;;;5038517;28;20029;-54
2021/12/09 09:44:45;;;;;;;6.95;3.47;;;;;;;;;;5036659;28;20045;-54
2021/12/09 09:47:11;;;;;;;4.78;3.67;;;;;;;;;;5037964;28;20041;-54
2021/12/09 09:49:37;;;;;;;3.78;2.83;;;;;;;;;;5037029;28;20108;-55
2021/12/09 09:52:05;;;;;;;3.55;3.17;;;;;;;;;;5035610;28;20310;-55
2021/12/09 09:54:31;;;;;;;3.65;3.28;;;;;;;;;;5036046;28;20041;-54
2021/12/09 09:56:56;;;;;;;3.22;2.78;;;;;;;;;;5036076;28;20032;-55
2021/12/09 09:59:22;;;;;;;3.33;2.65;;;;;;;;;;5029786;28;20045;-55
2021/12/09 10:01:52;;;;;;;3.15;2.58;;;;;;;;;;5030439;28;20765;-55
2021/12/09 10:04:45;;;;;;;3.10;2.80;;;;;;;;;;5019200;28;20068;-55
2021/12/09 10:07:15;;;;;;;3.85;3.15;;;;;;;;;;5029620;28;20041;-56
2021/12/09 10:09:41;;;;;;;3.97;2.88;;;;;;;;;;5034071;28;20056;-52
2021/12/09 10:12:08;;;;;;;5.97;3.70;;;;;;;;;;5032541;28;20064;-54
2021/12/09 10:14:35;;;;;;;3.13;2.70;;;;;;;;;;5030175;28;20040;-55
2021/12/09 10:17:08;;;;;;;3.08;2.78;;;;;;;;;;5035216;28;20068;-54
2021/12/09 10:19:36;;;;;;;5.20;3.03;;;;;;;;;;5034003;28;20033;-53
2021/12/09 10:22:10;;;;;;;3.75;2.83;;;;;;;;;;5034976;28;20479;-53
2021/12/09 10:24:38;;;;;;;4.50;3.90;;;;;;;;;;5034300;28;20914;-52
2021/12/09 10:27:06;;;;;;;2.85;2.47;;;;;;;;;;5030351;28;20481;-56
2021/12/09 10:29:40;;;;;;;3.05;2.63;;;;;;;;;;5031128;28;20121;-54
2021/12/09 10:32:16;;;;;;;3.85;2.85;;;;;;;;;;5030316;28;20034;-54
2021/12/09 10:34:46;;;;;;;3.00;2.63;;;;;;;;;;5030897;28;20048;-51
2021/12/09 10:37:23;;;;;;;2.80;2.35;;;;;;;;;;5035574;28;20021;-55
2021/12/09 10:40:01;;;;;;;3.83;3.17;;;;;;;;;;5035471;28;20032;-54
2021/12/09 10:42:26;;;;;;;2.83;2.22;;;;;;;;;;5030109;28;20471;-54
2021/12/09 10:44:54;;;;;;;5.57;2.78;;;;;;;;;;5034076;28;20098;-54
2021/12/09 10:47:52;;;;;;;3.22;2.30;;;;;;;;;;5036918;28;20128;-53
2021/12/09 10:50:28;;;;;;;2.70;2.00;;;;;;;;;;5034869;28;20021;-55
2021/12/09 10:53:16;;;;;;;4.07;3.30;;;;;;;;;;5028155;28;20371;-56
2021/12/09 10:55:41;;;;;;;2.70;2.15;;;;;;;;;;5028700;28;20110;-54
2021/12/09 10:58:12;;;;;;;3.80;3.10;;;;;;;;;;5026440;28;20593;-55
2021/12/09 11:00:41;;;;;;;5.87;2.50;;;;;;;;;;5029847;28;20560;-54
2021/12/09 11:03:32;;;;;;;2.88;2.55;;;;;;;;;;5033454;28;20032;-56
2021/12/09 11:06:07;;;;;;;4.07;3.13;;;;;;;;;;5033488;28;20033;-55
2021/12/09 11:08:54;;;;;;;3.22;2.58;;;;;;;;;;5033283;28;20099;-55
2021/12/09 11:11:36;;;;;;;3.50;2.55;;;;;;;;;;5033404;28;20037;-54
2021/12/09 11:14:14;;;;;;;4.15;3.03;;;;;;;;;;5031766;28;20033;-55
2021/12/09 11:16:55;;;;;;;3.40;2.85;;;;;;;;;;5031094;28;20017;-56
2021/12/09 11:19:46;;;;;;;;;;;;;;;;;;5024537;28;20029;-56
2021/12/09 11:22:13;;;;;;;2.83;2.38;;;;;;;;;;5034628;28;19931;-56
2021/12/09 11:24:45;;;;;;;3.30;2.40;;;;;;;;;;5030187;28;20029;-53
2021/12/09 11:27:18;;;;;;;2.97;2.47;;;;;;;;;;5025970;28;20036;-52
2021/12/09 11:29:48;;;;;;;3.55;3.03;;;;;;;;;;5029567;28;20049;-50
2021/12/09 11:35:30;;;;;;;5.13;3.75;;;;;;;;;;5031771;28;20041;-52
2021/12/09 11:40:51;;;;;;;3.00;2.63;;;;;;;;;;5033228;28;20124;-55
2021/12/09 11:43:25;;;;;;;3.28;2.55;;;;;;;;;;5030810;28;20037;-52
2021/12/09 11:45:52;;;;;;;3.65;3.25;;;;;;;;;;5036905;28;20095;-50
2021/12/09 11:48:18;;;;;;;3.28;2.80;;;;;;;;;;5037598;28;20068;-50
2021/12/09 11:50:50;;;;;;;3.78;3.20;;;;;;;;;;5034694;28;20056;-50
2021/12/09 11:53:18;;;;;;;5.05;3.50;;;;;;;;;;5036370;28;20048;-49
2021/12/09 11:55:51;;;;;;;6.00;3.58;;;;;;;;;;5034394;28;20021;-52
2021/12/09 11:58:30;;;;;;;4.53;4.05;;;;;;;;;;5036641;28;20029;-51
2021/12/09 12:12:51;;;;;;;4.50;3.00;;;;;;;;;;5030735;28;20032;-49
2021/12/09 12:20:50;;;;;;;4.38;2.53;;;;;;;;;;5035648;28;19924;-54
2021/12/09 12:23:31;;;;;;;3.95;3.00;;;;;;;;;;5034613;28;20025;-50
2021/12/09 12:26:24;;;;;;;;;;;;;;;;;;5037053;28;20025;-53
2021/12/09 12:29:00;;;;;;;3.70;3.00;;;;;;;;;;5031256;28;19935;-49
2021/12/09 12:32:09;;;;;;;3.85;2.97;;;;;;;;;;5030475;28;20028;-51
2021/12/09 12:35:18;;;;;;;4.25;2.90;;;;;;;;;;5032955;28;20044;-51
2021/12/09 12:40:14;;;;;;;4.13;2.17;;;;;;;;;;5033504;28;20028;-52
2021/12/09 12:42:56;;;;;;;2.58;2.00;;;;;;;;;;5035154;28;20029;-52
2021/12/09 12:45:52;;;;;;;3.42;2.67;;;;;;;;;;5032826;28;20098;-54
2021/12/09 12:53:49;;;;;;;3.90;3.00;;;;;;;;;;5039635;28;20459;-50
2021/12/09 12:56:20;;;;;;;3.08;2.53;;;;;;;;;;5040254;28;20029;-49
2021/12/09 12:59:04;;;;;;;3.60;2.65;;;;;;;;;;5035762;28;20048;-53
2021/12/09 13:01:30;;;;;;;4.13;3.05;;;;;;;;;;5033046;28;20124;-55
2021/12/09 13:04:06;;;;;;;4.28;2.72;;;;;;;;;;5035385;28;20124;-54
2021/12/09 13:07:16;;;;;;;3.83;2.83;;;;;;;;;;5039855;28;20033;-53
2021/12/09 13:09:51;;;;;;;4.85;3.75;;;;;;;;;;5034745;28;20064;-54
2021/12/09 13:12:40;;;;;;;3.15;2.85;;;;;;;;;;5039107;28;20037;-55
2021/12/09 13:15:08;;;;;;;3.45;2.67;;;;;;;;;;5037459;28;20132;-54
2021/12/09 13:17:48;;;;;;;3.60;3.15;;;;;;;;;;5036105;28;20372;-55
2021/12/09 13:20:31;;;;;;;3.38;2.67;;;;;;;;;;5036122;28;20033;-54
2021/12/09 13:23:26;;;;;;;2.92;2.50;;;;;;;;;;5036542;28;20037;-51
2021/12/09 13:26:20;;;;;;;3.15;2.83;;;;;;;;;;5031036;28;20045;-51
2021/12/09 13:29:19;;;;;;;4.18;3.55;;;;;;;;;;5036933;28;20083;-52
2021/12/09 13:32:14;;;;;;;3.28;2.92;;;;;;;;;;5030968;28;20057;-52
2021/12/09 13:34:50;;;;;;;5.22;2.92;;;;;;;;;;5033392;28;20025;-52
2021/12/09 13:48:20;;;;;;;4.15;3.63;;;;;;;;;;5035759;28;20395;-53
2021/12/09 13:55:37;;;;;;;4.18;3.60;;;;;;;;;;5031508;28;20036;-51
2021/12/09 13:58:07;;;;;;;3.90;2.80;;;;;;;;;;5037255;28;20099;-50
2021/12/09 14:00:39;;;;;;;4.15;3.15;;;;;;;;;;5038291;28;20888;-51
2021/12/09 14:03:06;;;;;;;3.60;3.05;;;;;;;;;;5037372;28;20114;-50
2021/12/09 14:05:39;;;;;;;4.45;3.55;;;;;;;;;;5033591;28;20044;-52
2021/12/09 14:08:08;;;;;;;4.22;3.10;;;;;;;;;;5034301;28;20044;-50
2021/12/09 14:10:37;;;;;;;3.63;3.08;;;;;;;;;;5033610;28;20037;-52
2021/12/09 14:13:10;;;;;;;5.75;4.15;;;;;;;;;;5035146;28;20096;-53
2021/12/09 14:15:41;;;;;;;4.68;3.80;;;;;;;;;;5034906;28;20033;-53
2021/12/09 14:18:20;;;;;;;6.03;3.67;;;;;;;;;;5034895;28;20116;-51
2021/12/09 14:20:46;;;;;;;4.88;4.38;;;;;;;;;;5034169;28;20080;-52
2021/12/09 14:23:14;;;;;;;7.47;3.63;;;;;;;;;;5034437;28;20086;-48
2021/12/09 14:25:40;;;;;;;4.22;3.60;;;;;;;;;;5035526;28;20094;-53
2021/12/09 14:28:15;;;;;;;6.80;3.67;;;;;;;;;;5039707;28;20026;-53
2021/12/09 14:30:44;;;;;;;6.57;3.38;;;;;;;;;;5037857;28;20036;-51
2021/12/09 14:33:10;;;;;;;3.80;3.40;;;;;;;;;;5033744;28;20025;-54
2021/12/09 14:35:44;;;;;;;5.35;4.18;;;;;;;;;;5033080;28;20451;-51
2021/12/09 14:38:19;;;;;;;4.57;4.13;;;;;;;;;;5034960;28;20065;-52
2021/12/09 14:40:48;;;;;;;4.40;3.97;;;;;;;;;;5034271;28;20057;-53
2021/12/09 14:43:17;;;;;;;6.13;4.65;;;;;;;;;;5034082;28;20035;-54
2021/12/09 14:45:58;;;;;;;7.25;3.33;;;;;;;;;;5037499;28;20427;-53
2021/12/09 14:48:35;;;;;;;4.80;4.03;;;;;;;;;;5035092;28;20037;-52
2021/12/09 14:51:27;;;;;;;3.63;3.28;;;;;;;;;;5035558;28;20032;-50
2021/12/09 14:54:02;;;;;;;3.55;3.03;;;;;;;;;;5032694;28;20129;-52
2021/12/09 14:56:35;;;;;;;3.95;3.58;;;;;;;;;;5035751;28;20031;-52
2021/12/09 14:59:26;;;;;;;3.60;3.08;;;;;;;;;;5032966;28;20033;-52
2021/12/09 15:02:12;;;;;;;4.30;3.70;;;;;;;;;;5036757;28;20029;-54
2021/12/09 15:04:46;;;;;;;5.07;4.10;;;;;;;;;;5035357;28;20040;-53
2021/12/09 15:07:22;;;;;;;3.72;3.22;;;;;;;;;;5031185;28;20060;-50
2021/12/09 15:09:58;;;;;;;3.53;3.17;;;;;;;;;;5036145;28;20021;-51
2021/12/09 15:12:30;;;;;;;4.65;3.90;;;;;;;;;;5036041;28;20109;-51
2021/12/09 15:15:00;;;;;;;5.28;3.88;;;;;;;;;;5035569;28;20072;-52
2021/12/09 15:17:27;;;;;;;5.80;4.20;;;;;;;;;;5036842;28;20091;-52
2021/12/09 15:20:01;;;;;;;5.50;3.55;;;;;;;;;;5036013;28;20025;-55
2021/12/09 15:22:54;;;;;;;5.05;3.97;;;;;;;;;;5038545;28;20041;-49
2021/12/09 15:25:20;;;;;;;4.43;4.03;;;;;;;;;;5036629;28;20455;-53
2021/12/09 15:28:00;;;;;;;9.43;4.38;;;;;;;;;;5037069;28;20048;-54
2021/12/09 15:30:56;;;;;;;3.63;3.23;;;;;;;;;;5036451;28;20126;-51
2021/12/09 15:33:43;;;;;;;6.30;3.60;;;;;;;;;;5033859;28;20357;-52
2021/12/09 15:36:15;;;;;;;3.88;3.08;;;;;;;;;;5034658;28;20481;-52
2021/12/09 15:38:46;;;;;;;4.78;3.03;;;;;;;;;;5034206;28;20371;-51
2021/12/09 15:41:25;;;;;;;7.07;4.65;;;;;;;;;;5035836;28;20025;-53
2021/12/09 15:43:52;;;;;;;10.77;4.43;;;;;;;;;;5032374;28;20425;-51
2021/12/09 15:46:18;;;;;;;4.55;3.22;;;;;;;;;;5033046;28;20571;-52
2021/12/09 15:48:44;;;;;;;5.53;3.85;;;;;;;;;;5034388;28;20107;-53